sensor_id;sensor_type;location;lat;lon;timestamp;temperature;humidity
15707;DHT22;7953;54.302;10.128;2023-09-12T00:00:08;20.00;99.90
15707;DHT22;7953;54.302;10.128;2023-09-12T00:02:37;20.00;99.90
15707;DHT22;7953;54.302;10.128;2023-09-12T00:05:04;20.00;99.90
15707;DHT22;7953;54.302;10.128;2023-09-12T00:07:31;20.00;99.90
15707;DHT22;7953;54.302;10.128;2023-09-12T00:09:58;19.90;99.90
15707;DHT22;7953;54.302;10.128;2023-09-12T00:12:26;19.90;99.90
15707;DHT22;7953;54.302;10.128;2023-09-12T00:14:54;20.00;99.90
15707;DHT22;7953;54.302;10.128;2023-09-12T00:17:21;19.90;99.90
15707;DHT22;7953;54.302;10.128;2023-09-12T00:19:48;19.90;99.90
15707;DHT22;7953;54.302;10.128;2023-09-12T00:22:15;19.90;99.90
15707;DHT22;7953;54.302;10.128;2023-09-12T00:24:42;19.90;99.90
15707;DHT22;7953;54.302;10.128;2023-09-12T00:27:08;19.90;99.90
15707;DHT22;7953;54.302;10.128;2023-09-12T00:29:37;19.90;99.90
15707;DHT22;7953;54.302;10.128;2023-09-12T00:32:04;19.80;99.90
15707;DHT22;7953;54.302;10.128;2023-09-12T00:34:31;19.80;99.90
15707;DHT22;7953;54.302;10.128;2023-09-12T00:36:58;19.80;99.90
15707;DHT22;7953;54.302;10.128;2023-09-12T00:39:25;19.80;99.90
15707;DHT22;7953;54.302;10.128;2023-09-12T00:41:51;19.80;99.90
15707;DHT22;7953;54.302;10.128;2023-09-12T00:44:18;19.80;99.90
15707;DHT22;7953;54.302;10.128;2023-09-12T00:46:48;19.80;99.90
15707;DHT22;7953;54.302;10.128;2023-09-12T00:49:16;19.80;99.90
15707;DHT22;7953;54.302;10.128;2023-09-12T00:51:44;19.80;99.90
15707;DHT22;7953;54.302;10.128;2023-09-12T00:54:12;19.80;99.90
15707;DHT22;7953;54.302;10.128;2023-09-12T00:56:39;19.70;99.90
15707;DHT22;7953;54.302;10.128;2023-09-12T00:59:06;19.80;99.90
15707;DHT22;7953;54.302;10.128;2023-09-12T01:01:33;19.70;99.90
15707;DHT22;7953;54.302;10.128;2023-09-12T01:04:02;19.80;99.90
15707;DHT22;7953;54.302;10.128;2023-09-12T01:06:31;19.80;99.90
15707;DHT22;7953;54.302;10.128;2023-09-12T01:08:59;19.80;99.90
15707;DHT22;7953;54.302;10.128;2023-09-12T01:11:26;19.80;99.90
15707;DHT22;7953;54.302;10.128;2023-09-12T01:13:54;19.80;99.90
15707;DHT22;7953;54.302;10.128;2023-09-12T01:16:20;19.80;99.90
15707;DHT22;7953;54.302;10.128;2023-09-12T01:18:48;19.80;99.90
15707;DHT22;7953;54.302;10.128;2023-09-12T01:21:37;19.80;99.90
15707;DHT22;7953;54.302;10.128;2023-09-12T01:27:18;19.80;99.90
15707;DHT22;7953;54.302;10.128;2023-09-12T01:29:48;19.90;99.90
15707;DHT22;7953;54.302;10.128;2023-09-12T01:32:18;19.80;99.90
15707;DHT22;7953;54.302;10.128;2023-09-12T01:34:46;19.90;99.90
15707;DHT22;7953;54.302;10.128;2023-09-12T01:37:13;19.90;99.90
15707;DHT22;7953;54.302;10.128;2023-09-12T01:39:40;19.90;99.90
15707;DHT22;7953;54.302;10.128;2023-09-12T01:42:11;19.90;99.90
15707;DHT22;7953;54.302;10.128;2023-09-12T01:44:41;19.90;99.90
15707;DHT22;7953;54.302;10.128;2023-09-12T01:47:11;19.90;99.90
15707;DHT22;7953;54.302;10.128;2023-09-12T01:49:39;19.90;99.90
15707;DHT22;7953;54.302;10.128;2023-09-12T01:52:08;19.90;99.90
15707;DHT22;7953;54.302;10.128;2023-09-12T01:54:37;19.80;99.90
15707;DHT22;7953;54.302;10.128;2023-09-12T01:57:04;19.90;99.90
15707;DHT22;7953;54.302;10.128;2023-09-12T01:59:33;19.90;99.90
15707;DHT22;7953;54.302;10.128;2023-09-12T02:02:00;19.80;99.90
15707;DHT22;7953;54.302;10.128;2023-09-12T02:04:28;19.80;99.90
15707;DHT22;7953;54.302;10.128;2023-09-12T02:06:55;19.80;99.90
15707;DHT22;7953;54.302;10.128;2023-09-12T02:09:23;19.80;99.90
15707;DHT22;7953;54.302;10.128;2023-09-12T02:11:51;19.80;99.90
15707;DHT22;7953;54.302;10.128;2023-09-12T02:14:18;19.80;99.90
15707;DHT22;7953;54.302;10.128;2023-09-12T02:16:46;19.90;99.90
15707;DHT22;7953;54.302;10.128;2023-09-12T02:19:13;19.80;99.90
15707;DHT22;7953;54.302;10.128;2023-09-12T02:21:39;19.90;99.90
15707;DHT22;7953;54.302;10.128;2023-09-12T02:24:07;19.80;99.90
15707;DHT22;7953;54.302;10.128;2023-09-12T02:26:34;19.80;99.90
15707;DHT22;7953;54.302;10.128;2023-09-12T02:29:03;19.90;99.90
15707;DHT22;7953;54.302;10.128;2023-09-12T02:31:31;19.90;99.90
15707;DHT22;7953;54.302;10.128;2023-09-12T02:33:59;19.90;99.90
15707;DHT22;7953;54.302;10.128;2023-09-12T02:36:26;19.90;99.90
15707;DHT22;7953;54.302;10.128;2023-09-12T02:38:54;19.80;99.90
15707;DHT22;7953;54.302;10.128;2023-09-12T02:41:21;19.90;99.90
15707;DHT22;7953;54.302;10.128;2023-09-12T02:43:48;19.80;99.90
15707;DHT22;7953;54.302;10.128;2023-09-12T02:46:15;19.80;99.90
15707;DHT22;7953;54.302;10.128;2023-09-12T02:48:41;19.80;99.90
15707;DHT22;7953;54.302;10.128;2023-09-12T02:51:10;19.80;99.90
15707;DHT22;7953;54.302;10.128;2023-09-12T02:53:37;19.80;99.90
15707;DHT22;7953;54.302;10.128;2023-09-12T02:56:03;19.90;99.90
15707;DHT22;7953;54.302;10.128;2023-09-12T02:58:30;19.80;99.90
15707;DHT22;7953;54.302;10.128;2023-09-12T03:00:57;19.80;99.90
15707;DHT22;7953;54.302;10.128;2023-09-12T03:03:24;19.80;99.90
15707;DHT22;7953;54.302;10.128;2023-09-12T03:05:57;19.70;99.90
15707;DHT22;7953;54.302;10.128;2023-09-12T03:08:26;19.80;99.90
15707;DHT22;7953;54.302;10.128;2023-09-12T03:10:56;19.70;99.90
15707;DHT22;7953;54.302;10.128;2023-09-12T03:13:24;19.70;99.90
15707;DHT22;7953;54.302;10.128;2023-09-12T03:15:51;19.70;99.90
15707;DHT22;7953;54.302;10.128;2023-09-12T03:18:18;19.80;99.90
15707;DHT22;7953;54.302;10.128;2023-09-12T03:20:45;19.80;99.90
15707;DHT22;7953;54.302;10.128;2023-09-12T03:23:12;19.70;99.90
15707;DHT22;7953;54.302;10.128;2023-09-12T03:25:40;19.70;99.90
15707;DHT22;7953;54.302;10.128;2023-09-12T03:28:07;19.70;99.90
15707;DHT22;7953;54.302;10.128;2023-09-12T03:30:35;19.70;99.90
15707;DHT22;7953;54.302;10.128;2023-09-12T03:33:03;19.70;99.90
15707;DHT22;7953;54.302;10.128;2023-09-12T03:35:32;19.60;99.90
15707;DHT22;7953;54.302;10.128;2023-09-12T03:37:59;19.50;99.90
15707;DHT22;7953;54.302;10.128;2023-09-12T03:40:27;19.60;99.90
15707;DHT22;7953;54.302;10.128;2023-09-12T03:42:56;19.60;99.90
15707;DHT22;7953;54.302;10.128;2023-09-12T03:45:22;19.50;99.90
15707;DHT22;7953;54.302;10.128;2023-09-12T03:47:49;19.50;99.90
15707;DHT22;7953;54.302;10.128;2023-09-12T03:50:16;19.60;99.90
15707;DHT22;7953;54.302;10.128;2023-09-12T03:52:43;19.60;99.90
15707;DHT22;7953;54.302;10.128;2023-09-12T03:55:10;19.60;99.90
15707;DHT22;7953;54.302;10.128;2023-09-12T03:57:37;19.70;99.90
15707;DHT22;7953;54.302;10.128;2023-09-12T04:00:06;19.60;99.90
15707;DHT22;7953;54.302;10.128;2023-09-12T04:02:34;19.60;99.90
15707;DHT22;7953;54.302;10.128;2023-09-12T04:05:01;19.60;99.90
15707;DHT22;7953;54.302;10.128;2023-09-12T04:07:28;19.50;99.90
15707;DHT22;7953;54.302;10.128;2023-09-12T04:09:55;19.50;99.90
15707;DHT22;7953;54.302;10.128;2023-09-12T04:12:22;19.40;99.90
15707;DHT22;7953;54.302;10.128;2023-09-12T04:14:50;19.40;99.90
15707;DHT22;7953;54.302;10.128;2023-09-12T04:17:18;19.50;99.90
15707;DHT22;7953;54.302;10.128;2023-09-12T04:19:45;19.40;99.90
15707;DHT22;7953;54.302;10.128;2023-09-12T04:22:12;19.40;99.90
15707;DHT22;7953;54.302;10.128;2023-09-12T04:24:39;19.40;99.90
15707;DHT22;7953;54.302;10.128;2023-09-12T04:27:06;19.40;99.90
15707;DHT22;7953;54.302;10.128;2023-09-12T04:29:33;19.40;99.90
15707;DHT22;7953;54.302;10.128;2023-09-12T04:32:01;19.40;99.90
15707;DHT22;7953;54.302;10.128;2023-09-12T04:34:30;19.40;99.90
15707;DHT22;7953;54.302;10.128;2023-09-12T04:36:57;19.30;99.90
15707;DHT22;7953;54.302;10.128;2023-09-12T04:39:24;19.40;99.90
15707;DHT22;7953;54.302;10.128;2023-09-12T04:41:51;19.40;99.90
15707;DHT22;7953;54.302;10.128;2023-09-12T04:44:18;19.30;99.90
15707;DHT22;7953;54.302;10.128;2023-09-12T04:46:44;19.40;99.90
15707;DHT22;7953;54.302;10.128;2023-09-12T04:49:11;19.40;99.90
15707;DHT22;7953;54.302;10.128;2023-09-12T04:51:40;19.30;99.90
15707;DHT22;7953;54.302;10.128;2023-09-12T04:54:08;19.30;99.90
15707;DHT22;7953;54.302;10.128;2023-09-12T04:56:35;19.30;99.90
15707;DHT22;7953;54.302;10.128;2023-09-12T04:59:02;19.30;99.90
15707;DHT22;7953;54.302;10.128;2023-09-12T05:01:29;19.30;99.90
15707;DHT22;7953;54.302;10.128;2023-09-12T05:03:55;19.30;99.90
15707;DHT22;7953;54.302;10.128;2023-09-12T05:06:22;19.30;99.90
15707;DHT22;7953;54.302;10.128;2023-09-12T05:08:50;19.30;99.90
15707;DHT22;7953;54.302;10.128;2023-09-12T05:11:17;19.30;99.90
15707;DHT22;7953;54.302;10.128;2023-09-12T05:13:44;19.30;99.90
15707;DHT22;7953;54.302;10.128;2023-09-12T05:16:11;19.30;99.90
15707;DHT22;7953;54.302;10.128;2023-09-12T05:18:38;19.30;99.90
15707;DHT22;7953;54.302;10.128;2023-09-12T05:21:04;19.30;99.90
15707;DHT22;7953;54.302;10.128;2023-09-12T05:23:31;19.30;99.90
15707;DHT22;7953;54.302;10.128;2023-09-12T05:26:00;19.30;99.90
15707;DHT22;7953;54.302;10.128;2023-09-12T05:28:26;19.30;99.90
15707;DHT22;7953;54.302;10.128;2023-09-12T05:30:53;19.30;99.90
15707;DHT22;7953;54.302;10.128;2023-09-12T05:33:20;19.30;99.90
15707;DHT22;7953;54.302;10.128;2023-09-12T05:35:47;19.30;99.90
15707;DHT22;7953;54.302;10.128;2023-09-12T05:38:14;19.40;99.90
15707;DHT22;7953;54.302;10.128;2023-09-12T05:40:41;19.40;99.90
15707;DHT22;7953;54.302;10.128;2023-09-12T05:43:09;19.40;99.90
15707;DHT22;7953;54.302;10.128;2023-09-12T05:45:36;19.40;99.90
15707;DHT22;7953;54.302;10.128;2023-09-12T05:48:03;19.40;99.90
15707;DHT22;7953;54.302;10.128;2023-09-12T05:50:30;19.40;99.90
15707;DHT22;7953;54.302;10.128;2023-09-12T05:52:57;19.40;99.90
15707;DHT22;7953;54.302;10.128;2023-09-12T05:55:24;19.40;99.90
15707;DHT22;7953;54.302;10.128;2023-09-12T05:57:51;19.40;99.90
15707;DHT22;7953;54.302;10.128;2023-09-12T06:00:20;19.40;99.90
15707;DHT22;7953;54.302;10.128;2023-09-12T06:02:47;19.50;99.90
15707;DHT22;7953;54.302;10.128;2023-09-12T06:05:14;19.50;99.90
15707;DHT22;7953;54.302;10.128;2023-09-12T06:07:41;19.50;99.90
15707;DHT22;7953;54.302;10.128;2023-09-12T06:10:09;19.50;99.90
15707;DHT22;7953;54.302;10.128;2023-09-12T06:12:36;19.50;99.90
15707;DHT22;7953;54.302;10.128;2023-09-12T06:15:03;19.50;99.90
15707;DHT22;7953;54.302;10.128;2023-09-12T06:17:32;19.50;99.90
15707;DHT22;7953;54.302;10.128;2023-09-12T06:19:59;19.50;99.90
15707;DHT22;7953;54.302;10.128;2023-09-12T06:22:25;19.50;99.90
15707;DHT22;7953;54.302;10.128;2023-09-12T06:24:54;19.50;99.90
15707;DHT22;7953;54.302;10.128;2023-09-12T06:27:21;19.40;99.90
15707;DHT22;7953;54.302;10.128;2023-09-12T06:29:48;19.40;99.90
15707;DHT22;7953;54.302;10.128;2023-09-12T06:32:17;19.40;99.90
15707;DHT22;7953;54.302;10.128;2023-09-12T06:34:45;19.50;99.90
15707;DHT22;7953;54.302;10.128;2023-09-12T06:37:13;19.50;99.90
15707;DHT22;7953;54.302;10.128;2023-09-12T06:39:40;19.60;99.90
15707;DHT22;7953;54.302;10.128;2023-09-12T06:42:07;19.60;99.90
15707;DHT22;7953;54.302;10.128;2023-09-12T06:44:34;19.60;99.90
15707;DHT22;7953;54.302;10.128;2023-09-12T06:47:00;19.70;99.90
15707;DHT22;7953;54.302;10.128;2023-09-12T06:49:28;19.80;99.90
15707;DHT22;7953;54.302;10.128;2023-09-12T06:51:59;19.80;99.90
15707;DHT22;7953;54.302;10.128;2023-09-12T06:54:25;19.90;99.90
15707;DHT22;7953;54.302;10.128;2023-09-12T06:56:52;20.00;99.90
15707;DHT22;7953;54.302;10.128;2023-09-12T06:59:19;20.00;99.90
15707;DHT22;7953;54.302;10.128;2023-09-12T07:01:46;20.10;99.90
15707;DHT22;7953;54.302;10.128;2023-09-12T07:04:13;20.10;99.90
15707;DHT22;7953;54.302;10.128;2023-09-12T07:06:40;20.20;99.90
15707;DHT22;7953;54.302;10.128;2023-09-12T07:09:09;20.20;99.90
15707;DHT22;7953;54.302;10.128;2023-09-12T07:11:39;20.20;99.90
15707;DHT22;7953;54.302;10.128;2023-09-12T07:14:06;20.20;99.90
15707;DHT22;7953;54.302;10.128;2023-09-12T07:16:35;20.20;99.90
15707;DHT22;7953;54.302;10.128;2023-09-12T07:19:02;20.20;99.90
15707;DHT22;7953;54.302;10.128;2023-09-12T07:21:30;20.20;99.90
15707;DHT22;7953;54.302;10.128;2023-09-12T07:23:57;20.20;99.90
15707;DHT22;7953;54.302;10.128;2023-09-12T07:26:26;20.20;99.90
15707;DHT22;7953;54.302;10.128;2023-09-12T07:28:52;20.20;99.90
15707;DHT22;7953;54.302;10.128;2023-09-12T07:31:19;20.20;99.90
15707;DHT22;7953;54.302;10.128;2023-09-12T07:33:46;20.20;99.90
15707;DHT22;7953;54.302;10.128;2023-09-12T07:36:13;20.30;99.90
15707;DHT22;7953;54.302;10.128;2023-09-12T07:38:40;20.30;99.90
15707;DHT22;7953;54.302;10.128;2023-09-12T07:41:07;20.40;99.90
15707;DHT22;7953;54.302;10.128;2023-09-12T07:43:35;20.50;99.90
15707;DHT22;7953;54.302;10.128;2023-09-12T07:46:02;20.50;99.90
15707;DHT22;7953;54.302;10.128;2023-09-12T07:48:29;20.60;99.90
15707;DHT22;7953;54.302;10.128;2023-09-12T07:50:56;20.60;99.90
15707;DHT22;7953;54.302;10.128;2023-09-12T07:53:23;20.70;99.90
15707;DHT22;7953;54.302;10.128;2023-09-12T07:55:50;20.80;99.90
15707;DHT22;7953;54.302;10.128;2023-09-12T07:58:17;20.80;99.90
15707;DHT22;7953;54.302;10.128;2023-09-12T08:00:46;20.80;99.90
15707;DHT22;7953;54.302;10.128;2023-09-12T08:03:13;20.80;99.90
15707;DHT22;7953;54.302;10.128;2023-09-12T08:05:40;20.80;99.90
15707;DHT22;7953;54.302;10.128;2023-09-12T08:08:07;20.80;99.90
15707;DHT22;7953;54.302;10.128;2023-09-12T08:10:34;20.90;99.90
15707;DHT22;7953;54.302;10.128;2023-09-12T08:13:01;20.90;99.90
15707;DHT22;7953;54.302;10.128;2023-09-12T08:15:28;21.00;99.90
15707;DHT22;7953;54.302;10.128;2023-09-12T08:17:56;21.10;99.90
15707;DHT22;7953;54.302;10.128;2023-09-12T08:20:23;21.10;99.90
15707;DHT22;7953;54.302;10.128;2023-09-12T08:22:50;21.20;99.90
15707;DHT22;7953;54.302;10.128;2023-09-12T08:25:16;21.40;99.90
15707;DHT22;7953;54.302;10.128;2023-09-12T08:27:43;21.50;99.90
15707;DHT22;7953;54.302;10.128;2023-09-12T08:30:11;21.50;99.90
15707;DHT22;7953;54.302;10.128;2023-09-12T08:32:39;21.50;99.90
15707;DHT22;7953;54.302;10.128;2023-09-12T08:35:10;21.60;99.90
15707;DHT22;7953;54.302;10.128;2023-09-12T08:37:38;21.60;99.90
15707;DHT22;7953;54.302;10.128;2023-09-12T08:40:07;21.70;99.90
15707;DHT22;7953;54.302;10.128;2023-09-12T08:42:38;21.80;99.90
15707;DHT22;7953;54.302;10.128;2023-09-12T08:45:08;21.80;99.90
15707;DHT22;7953;54.302;10.128;2023-09-12T08:47:40;21.90;99.90
15707;DHT22;7953;54.302;10.128;2023-09-12T08:50:12;21.90;99.90
15707;DHT22;7953;54.302;10.128;2023-09-12T08:52:40;22.10;99.90
15707;DHT22;7953;54.302;10.128;2023-09-12T08:55:07;22.10;99.90
15707;DHT22;7953;54.302;10.128;2023-09-12T08:57:36;22.30;99.90
15707;DHT22;7953;54.302;10.128;2023-09-12T09:00:06;22.40;99.90
15707;DHT22;7953;54.302;10.128;2023-09-12T09:02:35;22.50;99.90
15707;DHT22;7953;54.302;10.128;2023-09-12T09:05:04;22.40;99.90
15707;DHT22;7953;54.302;10.128;2023-09-12T09:07:34;22.60;99.90
15707;DHT22;7953;54.302;10.128;2023-09-12T09:10:03;22.70;99.90
15707;DHT22;7953;54.302;10.128;2023-09-12T09:12:30;22.70;99.90
15707;DHT22;7953;54.302;10.128;2023-09-12T09:14:57;22.70;99.90
15707;DHT22;7953;54.302;10.128;2023-09-12T09:17:26;22.60;99.90
15707;DHT22;7953;54.302;10.128;2023-09-12T09:19:53;22.60;99.90
15707;DHT22;7953;54.302;10.128;2023-09-12T09:22:20;22.60;99.90
15707;DHT22;7953;54.302;10.128;2023-09-12T09:24:50;22.50;99.90
15707;DHT22;7953;54.302;10.128;2023-09-12T09:27:32;22.60;99.90
15707;DHT22;7953;54.302;10.128;2023-09-12T09:30:00;22.80;99.90
15707;DHT22;7953;54.302;10.128;2023-09-12T09:32:29;23.00;99.90
15707;DHT22;7953;54.302;10.128;2023-09-12T09:34:55;23.30;99.90
15707;DHT22;7953;54.302;10.128;2023-09-12T09:37:23;23.50;99.90
15707;DHT22;7953;54.302;10.128;2023-09-12T09:39:52;23.70;99.90
15707;DHT22;7953;54.302;10.128;2023-09-12T09:42:18;23.60;99.90
15707;DHT22;7953;54.302;10.128;2023-09-12T09:44:46;23.80;99.90
15707;DHT22;7953;54.302;10.128;2023-09-12T09:47:14;23.70;99.90
15707;DHT22;7953;54.302;10.128;2023-09-12T09:49:45;23.60;99.90
15707;DHT22;7953;54.302;10.128;2023-09-12T09:52:12;23.60;99.90
15707;DHT22;7953;54.302;10.128;2023-09-12T09:54:43;23.60;99.90
15707;DHT22;7953;54.302;10.128;2023-09-12T09:57:11;23.60;99.90
15707;DHT22;7953;54.302;10.128;2023-09-12T09:59:38;23.60;99.90
15707;DHT22;7953;54.302;10.128;2023-09-12T10:02:09;23.50;99.90
15707;DHT22;7953;54.302;10.128;2023-09-12T10:04:41;23.40;99.90
15707;DHT22;7953;54.302;10.128;2023-09-12T10:07:10;23.30;99.90
15707;DHT22;7953;54.302;10.128;2023-09-12T10:09:38;23.30;99.90
15707;DHT22;7953;54.302;10.128;2023-09-12T10:12:07;23.40;99.90
15707;DHT22;7953;54.302;10.128;2023-09-12T10:14:38;23.60;99.90
15707;DHT22;7953;54.302;10.128;2023-09-12T10:17:05;23.70;99.90
15707;DHT22;7953;54.302;10.128;2023-09-12T10:19:37;23.80;99.90
15707;DHT22;7953;54.302;10.128;2023-09-12T10:22:10;23.80;99.90
15707;DHT22;7953;54.302;10.128;2023-09-12T10:24:39;23.80;99.90
15707;DHT22;7953;54.302;10.128;2023-09-12T10:27:07;23.80;99.90
15707;DHT22;7953;54.302;10.128;2023-09-12T10:29:36;23.80;99.90
15707;DHT22;7953;54.302;10.128;2023-09-12T10:32:03;23.70;99.90
15707;DHT22;7953;54.302;10.128;2023-09-12T10:34:32;23.80;99.90
15707;DHT22;7953;54.302;10.128;2023-09-12T10:36:59;23.90;99.90
15707;DHT22;7953;54.302;10.128;2023-09-12T10:39:27;24.00;99.90
15707;DHT22;7953;54.302;10.128;2023-09-12T10:41:55;24.20;99.90
15707;DHT22;7953;54.302;10.128;2023-09-12T10:44:24;24.30;99.90
15707;DHT22;7953;54.302;10.128;2023-09-12T10:46:53;24.50;99.90
15707;DHT22;7953;54.302;10.128;2023-09-12T10:49:20;24.40;99.90
15707;DHT22;7953;54.302;10.128;2023-09-12T10:51:47;24.40;99.90
15707;DHT22;7953;54.302;10.128;2023-09-12T10:54:23;24.20;99.90
15707;DHT22;7953;54.302;10.128;2023-09-12T10:57:02;24.10;99.90
15707;DHT22;7953;54.302;10.128;2023-09-12T10:59:29;23.90;99.90
15707;DHT22;7953;54.302;10.128;2023-09-12T11:02:28;23.80;99.90
15707;DHT22;7953;54.302;10.128;2023-09-12T11:04:55;23.90;99.90
15707;DHT22;7953;54.302;10.128;2023-09-12T11:07:33;24.00;99.90
15707;DHT22;7953;54.302;10.128;2023-09-12T11:10:19;24.00;99.90
15707;DHT22;7953;54.302;10.128;2023-09-12T11:12:47;24.10;99.90
15707;DHT22;7953;54.302;10.128;2023-09-12T11:15:15;24.20;99.90
15707;DHT22;7953;54.302;10.128;2023-09-12T11:17:44;24.10;99.90
15707;DHT22;7953;54.302;10.128;2023-09-12T11:20:12;24.10;99.90
15707;DHT22;7953;54.302;10.128;2023-09-12T11:22:41;24.20;99.90
15707;DHT22;7953;54.302;10.128;2023-09-12T11:25:16;24.00;99.90
15707;DHT22;7953;54.302;10.128;2023-09-12T11:27:45;24.00;99.90
15707;DHT22;7953;54.302;10.128;2023-09-12T11:30:13;24.00;99.90
15707;DHT22;7953;54.302;10.128;2023-09-12T11:32:46;24.10;99.90
15707;DHT22;7953;54.302;10.128;2023-09-12T11:35:14;24.20;99.90
15707;DHT22;7953;54.302;10.128;2023-09-12T11:37:48;24.20;99.90
15707;DHT22;7953;54.302;10.128;2023-09-12T11:40:17;24.30;99.90
15707;DHT22;7953;54.302;10.128;2023-09-12T11:42:44;24.30;99.90
15707;DHT22;7953;54.302;10.128;2023-09-12T11:45:12;24.40;99.90
15707;DHT22;7953;54.302;10.128;2023-09-12T11:47:40;24.50;99.90
15707;DHT22;7953;54.302;10.128;2023-09-12T11:50:14;24.40;99.90
15707;DHT22;7953;54.302;10.128;2023-09-12T11:52:59;24.50;99.90
15707;DHT22;7953;54.302;10.128;2023-09-12T11:55:26;24.50;99.90
15707;DHT22;7953;54.302;10.128;2023-09-12T11:57:54;24.30;99.90
15707;DHT22;7953;54.302;10.128;2023-09-12T12:00:21;24.20;99.90
15707;DHT22;7953;54.302;10.128;2023-09-12T12:02:49;24.20;99.90
15707;DHT22;7953;54.302;10.128;2023-09-12T12:05:17;24.20;99.90
15707;DHT22;7953;54.302;10.128;2023-09-12T12:07:44;24.10;99.90
15707;DHT22;7953;54.302;10.128;2023-09-12T12:10:13;23.90;99.90
15707;DHT22;7953;54.302;10.128;2023-09-12T12:12:40;24.00;99.90
15707;DHT22;7953;54.302;10.128;2023-09-12T12:15:10;24.00;99.90
15707;DHT22;7953;54.302;10.128;2023-09-12T12:17:36;24.00;99.90
15707;DHT22;7953;54.302;10.128;2023-09-12T12:20:07;23.90;99.90
15707;DHT22;7953;54.302;10.128;2023-09-12T12:22:37;23.80;99.90
15707;DHT22;7953;54.302;10.128;2023-09-12T12:25:08;23.80;99.90
15707;DHT22;7953;54.302;10.128;2023-09-12T12:27:36;23.90;99.90
15707;DHT22;7953;54.302;10.128;2023-09-12T12:30:05;23.90;99.90
15707;DHT22;7953;54.302;10.128;2023-09-12T12:32:31;23.90;99.90
15707;DHT22;7953;54.302;10.128;2023-09-12T12:34:58;24.00;99.90
15707;DHT22;7953;54.302;10.128;2023-09-12T12:37:28;24.00;99.90
15707;DHT22;7953;54.302;10.128;2023-09-12T12:39:58;23.90;99.90
15707;DHT22;7953;54.302;10.128;2023-09-12T12:42:32;23.90;99.90
15707;DHT22;7953;54.302;10.128;2023-09-12T12:44:59;24.00;99.90
15707;DHT22;7953;54.302;10.128;2023-09-12T12:47:26;23.90;99.90
15707;DHT22;7953;54.302;10.128;2023-09-12T12:49:54;23.90;99.90
15707;DHT22;7953;54.302;10.128;2023-09-12T12:52:24;23.90;99.90
15707;DHT22;7953;54.302;10.128;2023-09-12T12:54:51;23.80;99.90
15707;DHT22;7953;54.302;10.128;2023-09-12T12:57:21;23.80;99.90
15707;DHT22;7953;54.302;10.128;2023-09-12T12:59:48;23.90;99.90
15707;DHT22;7953;54.302;10.128;2023-09-12T13:02:16;23.80;99.90
15707;DHT22;7953;54.302;10.128;2023-09-12T13:04:44;23.70;99.90
15707;DHT22;7953;54.302;10.128;2023-09-12T13:07:11;23.70;99.90
15707;DHT22;7953;54.302;10.128;2023-09-12T13:09:38;23.60;99.90
15707;DHT22;7953;54.302;10.128;2023-09-12T13:12:06;23.40;99.90
15707;DHT22;7953;54.302;10.128;2023-09-12T13:14:35;23.30;99.90
15707;DHT22;7953;54.302;10.128;2023-09-12T13:17:02;23.30;99.90
15707;DHT22;7953;54.302;10.128;2023-09-12T13:19:29;23.40;99.90
15707;DHT22;7953;54.302;10.128;2023-09-12T13:21:57;23.50;99.90
15707;DHT22;7953;54.302;10.128;2023-09-12T13:24:23;23.50;99.90
15707;DHT22;7953;54.302;10.128;2023-09-12T13:26:51;23.60;99.90
15707;DHT22;7953;54.302;10.128;2023-09-12T13:29:19;23.70;99.90
15707;DHT22;7953;54.302;10.128;2023-09-12T13:31:47;24.00;99.90
15707;DHT22;7953;54.302;10.128;2023-09-12T13:34:14;24.20;99.90
15707;DHT22;7953;54.302;10.128;2023-09-12T13:36:40;24.30;99.90
15707;DHT22;7953;54.302;10.128;2023-09-12T13:39:07;24.40;99.90
15707;DHT22;7953;54.302;10.128;2023-09-12T13:41:34;24.50;99.90
15707;DHT22;7953;54.302;10.128;2023-09-12T13:44:01;24.40;99.90
15707;DHT22;7953;54.302;10.128;2023-09-12T13:46:28;24.40;99.90
15707;DHT22;7953;54.302;10.128;2023-09-12T13:48:57;24.40;99.90
15707;DHT22;7953;54.302;10.128;2023-09-12T13:51:26;24.50;99.90
15707;DHT22;7953;54.302;10.128;2023-09-12T13:53:53;24.60;99.90
15707;DHT22;7953;54.302;10.128;2023-09-12T13:56:19;24.80;99.90
15707;DHT22;7953;54.302;10.128;2023-09-12T13:58:46;24.70;99.90
15707;DHT22;7953;54.302;10.128;2023-09-12T14:01:13;24.80;99.90
15707;DHT22;7953;54.302;10.128;2023-09-12T14:03:40;24.80;99.90
15707;DHT22;7953;54.302;10.128;2023-09-12T14:06:08;24.80;99.90
15707;DHT22;7953;54.302;10.128;2023-09-12T14:08:35;24.70;99.90
15707;DHT22;7953;54.302;10.128;2023-09-12T14:11:02;24.50;99.90
15707;DHT22;7953;54.302;10.128;2023-09-12T14:13:29;24.50;99.90
15707;DHT22;7953;54.302;10.128;2023-09-12T14:15:56;24.60;99.90
15707;DHT22;7953;54.302;10.128;2023-09-12T14:18:24;24.60;99.90
15707;DHT22;7953;54.302;10.128;2023-09-12T14:20:51;24.70;99.90
15707;DHT22;7953;54.302;10.128;2023-09-12T14:23:19;24.80;99.90
15707;DHT22;7953;54.302;10.128;2023-09-12T14:25:47;24.80;99.90
15707;DHT22;7953;54.302;10.128;2023-09-12T14:28:13;24.90;99.90
15707;DHT22;7953;54.302;10.128;2023-09-12T14:30:40;25.00;99.90
15707;DHT22;7953;54.302;10.128;2023-09-12T14:33:10;25.10;99.90
15707;DHT22;7953;54.302;10.128;2023-09-12T14:35:37;25.20;99.90
15707;DHT22;7953;54.302;10.128;2023-09-12T14:38:04;25.20;99.90
15707;DHT22;7953;54.302;10.128;2023-09-12T14:40:32;25.20;99.90
15707;DHT22;7953;54.302;10.128;2023-09-12T14:43:00;25.30;99.90
15707;DHT22;7953;54.302;10.128;2023-09-12T14:45:28;25.40;99.90
15707;DHT22;7953;54.302;10.128;2023-09-12T14:47:55;25.40;99.90
15707;DHT22;7953;54.302;10.128;2023-09-12T14:50:23;25.20;99.90
15707;DHT22;7953;54.302;10.128;2023-09-12T14:52:51;25.10;99.90
15707;DHT22;7953;54.302;10.128;2023-09-12T14:55:18;25.00;99.90
15707;DHT22;7953;54.302;10.128;2023-09-12T14:57:46;24.90;99.90
15707;DHT22;7953;54.302;10.128;2023-09-12T15:00:14;24.80;99.90
15707;DHT22;7953;54.302;10.128;2023-09-12T15:02:41;24.70;99.90
15707;DHT22;7953;54.302;10.128;2023-09-12T15:05:08;24.70;99.90
15707;DHT22;7953;54.302;10.128;2023-09-12T15:07:35;24.70;99.90
15707;DHT22;7953;54.302;10.128;2023-09-12T15:10:03;24.60;99.90
15707;DHT22;7953;54.302;10.128;2023-09-12T15:12:30;24.60;99.90
15707;DHT22;7953;54.302;10.128;2023-09-12T15:14:59;24.50;99.90
15707;DHT22;7953;54.302;10.128;2023-09-12T15:17:25;24.50;99.90
15707;DHT22;7953;54.302;10.128;2023-09-12T15:19:52;24.50;99.90
15707;DHT22;7953;54.302;10.128;2023-09-12T15:22:19;24.50;99.90
15707;DHT22;7953;54.302;10.128;2023-09-12T15:24:46;24.50;99.90
15707;DHT22;7953;54.302;10.128;2023-09-12T15:27:13;24.60;99.90
15707;DHT22;7953;54.302;10.128;2023-09-12T15:29:40;24.70;99.90
15707;DHT22;7953;54.302;10.128;2023-09-12T15:32:08;24.90;99.90
15707;DHT22;7953;54.302;10.128;2023-09-12T15:34:35;25.00;99.90
15707;DHT22;7953;54.302;10.128;2023-09-12T15:37:09;25.10;99.90